Time;durP1;ratioP1;P1;durP2;ratioP2;P2;SDS_P1;SDS_P2;PMS_P1;PMS_P2;Temp;Humidity;BMP_temperature;BMP_pressure;BME280_temperature;BME280_humidity;BME280_pressure;Samples;Min_cycle;Max_cycle;Signal;HPM_P1;HPM_P2
2023/10/08 00:00:38;;;;;;;3.97;2.15;;;;;;;8.41;54.57;93936.84;521539;28;944;-50
2023/10/08 00:00:46;;;;;;;3.03;1.83;;;;;;;8.35;54.65;93930.69;519617;28;967;-49
2023/10/08 00:01:03;;;;;;;2.63;2.08;;;;;;;8.29;54.41;93919.75;519514;28;963;-50
2023/10/08 00:01:21;;;;;;;2.28;2.03;;;;;;;8.40;54.48;93935.38;519890;28;840;-50
2023/10/08 00:01:42;;;;;;;2.67;2.08;;;;;;;8.39;54.29;93925.63;521320;28;1597;-50
2023/10/08 00:01:57;;;;;;;2.78;2.10;;;;;;;8.43;54.28;93939.81;521603;28;920;-51
2023/10/08 00:02:21;;;;;;;2.67;1.83;;;;;;;8.40;54.38;93935.38;521587;28;876;-49
2023/10/08 00:02:37;;;;;;;2.78;1.80;;;;;;;8.44;54.18;93941.31;519468;28;920;-49
2023/10/08 00:02:53;;;;;;;3.30;2.27;;;;;;;8.44;54.25;93937.81;519496;28;801;-50
2023/10/08 00:03:10;;;;;;;3.42;2.45;;;;;;;8.44;53.95;93924.81;519617;28;793;-48
2023/10/08 00:03:29;;;;;;;2.78;2.03;;;;;;;8.45;54.23;93936.53;519460;28;852;-50
2023/10/08 00:03:53;;;;;;;3.13;1.88;;;;;;;8.35;53.89;93914.19;519481;28;955;-50
2023/10/08 00:04:10;;;;;;;4.22;2.25;;;;;;;8.43;53.95;93930.81;519439;28;905;-52
2023/10/08 00:04:26;;;;;;;3.55;2.42;;;;;;;8.44;54.19;93924.81;521252;28;937;-51
2023/10/08 00:04:44;;;;;;;3.97;2.20;;;;;;;8.32;53.99;93907.72;521568;28;852;-50
2023/10/08 00:05:00;;;;;;;4.50;2.00;;;;;;;8.42;54.17;93927.34;521536;28;963;-52
2023/10/08 00:05:16;;;;;;;4.85;2.20;;;;;;;8.39;54.34;93925.63;521501;28;893;-50
2023/10/08 00:05:39;;;;;;;6.55;2.42;;;;;;;8.37;54.29;93928.91;519477;28;869;-51
2023/10/08 00:05:54;;;;;;;5.82;2.30;;;;;;;8.35;54.67;93925.94;519380;28;936;-51
2023/10/08 00:06:14;;;;;;;3.30;2.27;;;;;;;8.35;54.38;93923.19;519549;28;881;-50
2023/10/08 00:06:30;;;;;;;2.60;2.13;;;;;;;8.35;54.48;93927.94;521119;28;967;-51
2023/10/08 00:06:46;;;;;;;3.15;2.00;;;;;;;8.34;54.21;93927.19;521501;28;1025;-52
2023/10/08 00:07:01;;;;;;;3.10;2.08;;;;;;;8.32;54.35;93924.22;519522;28;845;-52
2023/10/08 00:07:21;;;;;;;2.97;1.92;;;;;;;8.29;54.42;93922.50;521347;28;1373;-50
2023/10/08 00:07:36;;;;;;;3.05;2.00;;;;;;;8.29;54.61;93921.78;521391;28;852;-51
2023/10/08 00:07:51;;;;;;;3.20;2.10;;;;;;;8.29;54.60;93924.53;521471;28;884;-51
2023/10/08 00:08:09;;;;;;;4.27;2.20;;;;;;;8.17;54.29;93901.16;521272;28;1919;-52
2023/10/08 00:08:24;;;;;;;3.35;1.63;;;;;;;8.29;54.34;93919.03;521258;28;1039;-50
2023/10/08 00:08:39;;;;;;;2.97;1.53;;;;;;;8.28;54.17;93912.78;521390;28;893;-52
2023/10/08 00:08:59;;;;;;;2.93;1.80;;;;;;;8.29;53.82;93919.03;521287;28;1016;-51
2023/10/08 00:09:15;;;;;;;1.92;1.73;;;;;;;8.29;54.06;93919.03;519467;28;883;-50
2023/10/08 00:09:35;;;;;;;1.80;1.67;;;;;;;8.25;53.95;93916.56;520979;28;802;-51
2023/10/08 00:09:51;;;;;;;2.50;1.90;;;;;;;8.25;54.07;93913.81;521853;28;978;-51
2023/10/08 00:10:08;;;;;;;2.78;2.17;;;;;;;8.25;53.87;93911.06;521952;28;814;-51
2023/10/08 00:10:26;;;;;;;3.28;1.98;;;;;;;8.25;53.81;93918.56;521784;28;909;-52
2023/10/08 00:10:42;;;;;;;3.38;2.00;;;;;;;8.24;53.70;93919.81;521978;28;876;-52
2023/10/08 00:11:05;;;;;;;3.25;2.30;;;;;;;8.21;53.84;93915.34;521851;28;955;-51
2023/10/08 00:11:22;;;;;;;2.83;2.00;;;;;;;8.24;53.88;93920.56;520565;28;959;-54
2023/10/08 00:11:40;;;;;;;3.22;2.20;;;;;;;8.22;53.92;93919.59;521928;28;881;-51
2023/10/08 00:11:55;;;;;;;2.47;1.70;;;;;;;8.20;53.95;93922.13;521846;28;952;-52
2023/10/08 00:12:13;;;;;;;2.60;1.60;;;;;;;8.19;53.91;93915.88;521839;28;1107;-51
2023/10/08 00:12:29;;;;;;;2.75;1.80;;;;;;;8.18;53.90;93919.91;521862;28;887;-51
2023/10/08 00:12:47;;;;;;;1.95;1.80;;;;;;;8.19;53.93;93920.63;521908;28;889;-51
2023/10/08 00:13:04;;;;;;;2.72;1.98;;;;;;;8.18;53.77;93921.91;521669;28;1367;-51
2023/10/08 00:13:19;;;;;;;2.70;1.85;;;;;;;8.17;53.81;93918.41;521840;28;1001;-51
2023/10/08 00:13:39;;;;;;;1.90;1.67;;;;;;;8.13;53.79;93917.97;521653;28;994;-51
2023/10/08 00:13:56;;;;;;;1.90;1.70;;;;;;;8.09;53.95;93927.78;519651;28;921;-51
2023/10/08 00:14:17;;;;;;;2.17;1.77;;;;;;;8.11;53.98;93922.50;519639;28;845;-52
2023/10/08 00:14:43;;;;;;;2.83;1.98;;;;;;;8.09;54.09;93930.53;519641;28;909;-50
2023/10/08 00:15:00;;;;;;;4.28;2.20;;;;;;;8.07;54.23;93922.81;519858;28;908;-51
2023/10/08 00:15:16;;;;;;;3.20;2.10;;;;;;;8.07;53.91;93920.06;519640;28;909;-51
2023/10/08 00:15:32;;;;;;;3.53;1.70;;;;;;;8.06;54.17;93915.81;519905;28;893;-50
2023/10/08 00:15:54;;;;;;;2.40;1.48;;;;;;;8.05;54.17;93919.09;520097;28;809;-52
2023/10/08 00:16:11;;;;;;;1.85;1.70;;;;;;;8.04;54.28;93917.59;521906;28;892;-52
2023/10/08 00:16:28;;;;;;;2.17;1.98;;;;;;;7.89;54.25;93901.53;521890;28;856;-50
2023/10/08 00:16:49;;;;;;;2.22;1.98;;;;;;;8.01;54.44;93930.38;521873;28;809;-50
2023/10/08 00:17:10;;;;;;;2.53;1.65;;;;;;;7.98;54.56;93928.69;521871;28;823;-50
2023/10/08 00:17:25;;;;;;;5.43;2.00;;;;;;;7.96;54.76;93925.72;520545;28;926;-51
2023/10/08 00:17:41;;;;;;;2.23;1.90;;;;;;;7.96;54.70;93922.22;519952;28;1018;-52
2023/10/08 00:17:58;;;;;;;1.98;1.85;;;;;;;7.87;54.43;93908.81;519799;28;884;-51
2023/10/08 00:18:15;;;;;;;2.35;1.80;;;;;;;7.96;54.31;93922.22;519813;28;1027;-52
2023/10/08 00:18:32;;;;;;;2.88;1.77;;;;;;;7.91;54.60;93917.50;519911;28;1022;-51
2023/10/08 00:18:51;;;;;;;3.05;2.22;;;;;;;7.93;54.64;93921.22;520136;28;907;-51
2023/10/08 00:19:13;;;;;;;2.95;2.22;;;;;;;7.91;54.88;93921.00;521865;28;897;-50
2023/10/08 00:19:34;;;;;;;3.90;2.00;;;;;;;7.90;54.88;93921.53;521936;28;828;-51
2023/10/08 00:19:52;;;;;;;4.22;2.13;;;;;;;7.86;55.19;93921.81;521882;28;902;-51
2023/10/08 00:20:08;;;;;;;4.55;2.25;;;;;;;7.87;55.04;93917.81;521881;28;829;-51
2023/10/08 00:20:35;;;;;;;3.25;2.22;;;;;;;7.87;55.15;93928.81;521816;28;1110;-54
2023/10/08 00:21:27;;;;;;;3.00;1.83;;;;;;;7.84;55.23;93910.59;520275;28;734;-51
2023/10/08 00:21:44;;;;;;;3.22;1.90;;;;;;;7.83;55.23;93922.13;521768;28;987;-51
2023/10/08 00:22:05;;;;;;;2.22;1.55;;;;;;;7.83;55.13;93911.13;519848;28;970;-50
2023/10/08 00:22:22;;;;;;;2.10;1.63;;;;;;;7.79;55.15;93911.44;519855;28;917;-51
2023/10/08 00:22:37;;;;;;;2.83;1.92;;;;;;;7.67;55.25;93892.88;519775;28;905;-51
2023/10/08 00:22:56;;;;;;;2.70;2.10;;;;;;;7.78;55.31;93914.69;519622;28;829;-51
2023/10/08 00:23:12;;;;;;;3.17;1.92;;;;;;;7.78;55.48;93907.19;519589;28;929;-51
2023/10/08 00:23:27;;;;;;;3.38;1.80;;;;;;;7.78;55.64;93909.19;521099;28;1070;-51
2023/10/08 00:23:52;;;;;;;2.27;1.80;;;;;;;7.76;55.47;93906.97;521740;28;820;-52
2023/10/08 00:24:09;;;;;;;2.28;1.98;;;;;;;7.77;55.74;93916.72;521738;28;907;-50
2023/10/08 00:24:26;;;;;;;2.97;1.90;;;;;;;7.79;55.61;93910.69;521731;28;1181;-50
2023/10/08 00:24:42;;;;;;;4.00;1.92;;;;;;;7.73;55.67;93907.28;520501;28;1328;-50
2023/10/08 00:24:57;;;;;;;4.20;1.90;;;;;;;7.76;55.55;93903.47;521284;28;1317;-51
2023/10/08 00:25:13;;;;;;;3.30;1.70;;;;;;;7.75;55.67;93911.00;520331;28;1665;-51
2023/10/08 00:25:30;;;;;;;3.50;2.00;;;;;;;7.78;55.65;93907.19;519758;28;952;-51
2023/10/08 00:25:47;;;;;;;3.70;2.10;;;;;;;7.77;55.57;93907.72;520482;28;893;-50
2023/10/08 00:26:04;;;;;;;2.80;1.88;;;;;;;7.78;55.62;93904.44;520318;28;951;-50
2023/10/08 00:26:32;;;;;;;2.53;2.10;;;;;;;7.79;55.50;93905.19;520603;28;919;-50
2023/10/08 00:26:47;;;;;;;2.40;2.20;;;;;;;7.76;55.09;93904.22;519784;28;1067;-51
2023/10/08 00:27:06;;;;;;;2.30;2.10;;;;;;;7.76;55.31;93908.97;519719;28;1700;-51
2023/10/08 00:27:22;;;;;;;2.83;2.30;;;;;;;7.75;55.14;93902.75;519773;28;944;-51
2023/10/08 00:27:38;;;;;;;7.10;2.17;;;;;;;7.76;55.15;93906.22;519829;28;856;-50
2023/10/08 00:27:54;;;;;;;6.78;2.25;;;;;;;7.73;55.19;93902.53;521159;28;1494;-52
2023/10/08 00:28:13;;;;;;;2.33;2.13;;;;;;;7.75;55.08;93907.50;521539;28;1914;-50
2023/10/08 00:28:28;;;;;;;3.45;2.13;;;;;;;7.71;54.73;93905.03;521901;28;879;-51
2023/10/08 00:28:47;;;;;;;3.97;2.20;;;;;;;7.67;54.75;93904.56;521852;28;940;-51
2023/10/08 00:29:06;;;;;;;3.85;2.47;;;;;;;7.50;54.43;93885.56;521017;28;1174;-50
2023/10/08 00:29:21;;;;;;;4.55;2.10;;;;;;;7.70;54.66;93909.06;521085;28;1136;-50
2023/10/08 00:29:39;;;;;;;4.30;1.93;;;;;;;7.70;54.35;93920.03;521869;28;784;-51
2023/10/08 00:29:56;;;;;;;4.32;2.38;;;;;;;7.71;54.20;93913.28;521902;28;928;-50
2023/10/08 00:30:17;;;;;;;4.30;2.58;;;;;;;7.72;54.06;93914.03;521918;28;888;-50
2023/10/08 00:30:33;;;;;;;2.75;1.90;;;;;;;7.50;53.90;93879.31;521917;28;843;-51
2023/10/08 00:30:49;;;;;;;2.70;2.10;;;;;;;7.74;54.22;93908.75;521789;28;1159;-53
2023/10/08 00:31:17;;;;;;;3.90;2.45;;;;;;;7.72;54.12;93911.28;521867;28;1062;-51
2023/10/08 00:31:40;;;;;;;3.97;2.30;;;;;;;7.71;54.31;93912.56;521580;28;825;-51
2023/10/08 00:31:56;;;;;;;4.10;2.10;;;;;;;7.64;54.55;93914.59;521645;28;817;-51
2023/10/08 00:32:12;;;;;;;3.83;2.42;;;;;;;7.61;54.55;93915.66;521701;28;833;-51
2023/10/08 00:32:27;;;;;;;4.17;2.50;;;;;;;7.62;54.76;93910.91;521315;27;1404;-52
2023/10/08 00:32:45;;;;;;;4.57;2.38;;;;;;;7.62;54.82;93908.88;521639;28;979;-51
2023/10/08 00:33:01;;;;;;;4.20;2.35;;;;;;;7.58;54.75;93918.69;521716;28;950;-51
2023/10/08 00:33:16;;;;;;;3.40;2.23;;;;;;;7.62;54.80;93906.13;520984;28;1492;-51
2023/10/08 00:33:32;;;;;;;3.13;2.13;;;;;;;7.40;54.64;93875.44;521789;28;897;-52
2023/10/08 00:33:48;;;;;;;3.85;2.30;;;;;;;7.66;54.61;93908.59;520411;28;989;-50
2023/10/08 00:34:05;;;;;;;4.00;2.33;;;;;;;7.65;54.60;93901.59;519626;28;1055;-52
2023/10/08 00:34:21;;;;;;;2.75;2.03;;;;;;;7.68;54.51;93910.81;520366;28;1052;-52
2023/10/08 00:34:41;;;;;;;2.90;2.00;;;;;;;7.68;54.75;93910.81;521853;28;888;-51
2023/10/08 00:34:57;;;;;;;2.75;2.17;;;;;;;7.67;54.83;93904.56;521898;28;836;-53
2023/10/08 00:35:20;;;;;;;2.42;2.00;;;;;;;7.68;54.81;93905.31;521418;28;1685;-53
2023/10/08 00:35:41;;;;;;;2.53;2.03;;;;;;;7.59;55.07;93892.69;519831;28;842;-51
2023/10/08 00:35:56;;;;;;;4.00;2.05;;;;;;;7.64;54.90;93909.09;520210;28;1633;-51
2023/10/08 00:36:19;;;;;;;2.88;2.00;;;;;;;7.67;54.81;93909.34;521657;28;1506;-51
2023/10/08 00:36:34;;;;;;;2.22;2.03;;;;;;;7.65;54.87;93899.63;521017;28;912;-50
2023/10/08 00:36:50;;;;;;;2.10;1.90;;;;;;;7.67;54.79;93906.59;521765;28;1578;-51
2023/10/08 00:37:08;;;;;;;2.28;1.83;;;;;;;7.65;54.81;93909.84;521860;28;805;-52
2023/10/08 00:37:26;;;;;;;2.25;1.90;;;;;;;7.65;54.91;93904.34;519746;28;951;-51
2023/10/08 00:37:42;;;;;;;2.92;2.05;;;;;;;7.61;54.87;93901.16;519855;28;888;-52
2023/10/08 00:38:00;;;;;;;3.03;2.00;;;;;;;7.65;55.04;93912.59;521036;28;1193;-51
2023/10/08 00:38:20;;;;;;;3.15;2.00;;;;;;;7.64;54.96;93911.84;521759;28;1231;-52
2023/10/08 00:38:36;;;;;;;2.83;1.92;;;;;;;7.66;55.11;93914.09;521828;28;885;-51
2023/10/08 00:38:54;;;;;;;3.58;1.92;;;;;;;7.64;55.11;93906.34;520770;28;875;-51
2023/10/08 00:39:13;;;;;;;3.38;1.85;;;;;;;7.68;55.19;93908.06;520164;28;1056;-51
2023/10/08 00:39:34;;;;;;;4.75;2.05;;;;;;;7.68;55.00;93910.81;521902;28;980;-52
2023/10/08 00:39:49;;;;;;;2.95;1.83;;;;;;;7.69;54.96;93910.31;521359;28;1112;-53
2023/10/08 00:40:12;;;;;;;2.42;1.88;;;;;;;7.70;54.85;93908.31;520269;28;1216;-51
2023/10/08 00:40:44;;;;;;;2.30;2.10;;;;;;;7.69;54.69;93909.56;520436;28;987;-52
2023/10/08 00:41:00;;;;;;;2.53;1.88;;;;;;;7.68;54.57;93900.59;519893;28;869;-51
2023/10/08 00:41:15;;;;;;;2.92;2.00;;;;;;;7.68;54.53;93899.84;519996;28;1144;-51
2023/10/08 00:41:33;;;;;;;2.83;1.98;;;;;;;7.64;54.56;93903.59;521966;28;872;-52
2023/10/08 00:41:50;;;;;;;2.47;1.90;;;;;;;7.64;54.65;93913.88;521931;28;878;-53
2023/10/08 00:42:12;;;;;;;3.50;1.75;;;;;;;7.62;54.80;93906.13;521827;28;892;-52
2023/10/08 00:42:28;;;;;;;3.72;1.80;;;;;;;7.60;54.77;93905.91;521660;28;1470;-51
2023/10/08 00:42:46;;;;;;;1.98;1.60;;;;;;;7.59;54.97;93903.69;521439;28;994;-51
2023/10/08 00:43:03;;;;;;;3.83;2.03;;;;;;;7.52;55.00;93893.28;521683;28;1004;-52
2023/10/08 00:43:35;;;;;;;4.43;2.05;;;;;;;7.59;54.98;93912.69;521686;28;875;-52
2023/10/08 00:43:51;;;;;;;4.15;1.80;;;;;;;7.57;55.12;93909.72;521672;28;909;-51
2023/10/08 00:44:22;;;;;;;3.97;1.90;;;;;;;7.55;55.14;93908.75;521784;28;1087;-52
2023/10/08 00:44:47;;;;;;;2.92;2.10;;;;;;;7.52;55.46;93909.75;519703;28;908;-52
2023/10/08 00:45:04;;;;;;;2.15;1.95;;;;;;;7.53;55.34;93900.28;519734;28;905;-53
2023/10/08 00:45:20;;;;;;;2.63;1.80;;;;;;;7.54;55.31;93905.25;520681;28;1555;-52
2023/10/08 00:45:43;;;;;;;4.50;1.80;;;;;;;7.48;55.25;93893.59;521308;28;817;-52
2023/10/08 00:45:59;;;;;;;3.42;1.67;;;;;;;7.45;55.03;93883.63;519758;28;873;-54
2023/10/08 00:46:32;;;;;;;2.70;1.60;;;;;;;7.54;55.27;93908.00;517623;28;932;-51
2023/10/08 00:46:48;;;;;;;1.70;1.30;;;;;;;7.54;55.34;93897.00;517636;28;982;-51
2023/10/08 00:47:05;;;;;;;2.38;1.67;;;;;;;7.45;55.48;93894.59;517505;28;852;-52
2023/10/08 00:47:26;;;;;;;2.10;1.90;;;;;;;7.51;55.30;93898.03;518606;28;1079;-53
2023/10/08 00:47:45;;;;;;;1.90;1.70;;;;;;;7.50;55.26;93885.56;519808;28;990;-50
2023/10/08 00:48:00;;;;;;;2.78;1.88;;;;;;;7.52;55.65;93899.53;521502;28;998;-51
2023/10/08 00:48:17;;;;;;;3.53;2.00;;;;;;;7.50;55.58;93891.06;521591;28;1910;-52
2023/10/08 00:48:35;;;;;;;8.38;2.78;;;;;;;7.49;55.60;93891.59;520277;28;1197;-53
2023/10/08 00:48:54;;;;;;;18.00;3.00;;;;;;;7.51;55.76;93895.28;519509;28;909;-51
2023/10/08 00:50:06;;;;;;;5.25;2.45;;;;;;;7.54;55.71;93890.75;517720;28;716;-51
2023/10/08 00:50:21;;;;;;;3.80;1.85;;;;;;;7.52;55.55;93885.78;517607;28;900;-53
2023/10/08 00:50:42;;;;;;;5.07;1.90;;;;;;;7.53;55.70;93886.53;517966;28;1206;-51
2023/10/08 00:51:15;;;;;;;5.40;2.08;;;;;;;7.55;55.55;93898.50;519998;28;852;-51
2023/10/08 00:51:40;;;;;;;3.50;2.13;;;;;;;7.58;55.47;93891.19;519784;28;1089;-52
2023/10/08 00:52:30;;;;;;;2.92;1.95;;;;;;;7.56;55.39;93891.72;519953;28;698;-52
2023/10/08 00:52:59;;;;;;;3.30;1.90;;;;;;;7.56;55.39;93893.72;521697;28;840;-51
2023/10/08 00:53:21;;;;;;;3.40;2.22;;;;;;;7.55;55.46;93895.00;519521;28;1141;-52
2023/10/08 00:53:39;;;;;;;3.75;2.10;;;;;;;7.53;55.55;93892.78;520246;28;915;-51
2023/10/08 00:54:05;;;;;;;2.78;1.83;;;;;;;7.49;55.55;93900.53;521646;28;952;-51
2023/10/08 00:54:21;;;;;;;5.65;2.30;;;;;;;7.48;55.40;93904.56;521773;28;872;-51
2023/10/08 00:55:22;;;;;;;2.10;1.70;;;;;;;7.34;55.88;93897.47;516639;28;1621;-51
2023/10/08 00:55:37;;;;;;;2.33;1.80;;;;;;;7.34;55.80;93888.50;515464;28;945;-52
2023/10/08 00:56:00;;;;;;;2.20;1.80;;;;;;;7.31;55.74;93898.53;515418;28;929;-52
2023/10/08 00:56:19;;;;;;;2.30;1.70;;;;;;;7.30;55.53;93894.28;516376;28;1037;-52
2023/10/08 00:57:26;;;;;;;2.47;1.65;;;;;;;7.23;56.07;93889.38;521835;28;883;-51
2023/10/08 00:57:42;;;;;;;2.15;1.70;;;;;;;7.31;56.21;93892.28;520149;28;1369;-51
2023/10/08 00:57:58;;;;;;;2.57;1.80;;;;;;;7.32;56.25;93891.03;520525;28;934;-51
2023/10/08 00:58:23;;;;;;;2.50;1.95;;;;;;;7.33;55.98;93896.00;520175;28;1152;-53
2023/10/08 00:58:41;;;;;;;2.92;2.08;;;;;;;7.37;56.06;93901.94;521481;28;1232;-52
2023/10/08 00:58:59;;;;;;;2.53;2.00;;;;;;;7.39;56.12;93893.94;519683;28;896;-52
2023/10/08 00:59:15;;;;;;;2.60;2.00;;;;;;;7.40;55.99;93894.69;521435;28;1093;-53
2023/10/08 00:59:36;;;;;;;3.00;2.00;;;;;;;7.42;56.09;93897.66;521708;28;896;-51
2023/10/08 00:59:56;;;;;;;1.83;1.50;;;;;;;7.44;55.83;93893.13;521707;28;853;-51
2023/10/08 01:00:17;;;;;;;2.40;1.60;;;;;;;7.46;55.66;93887.88;520009;28;849;-52
2023/10/08 01:00:37;;;;;;;2.28;1.90;;;;;;;7.25;55.71;93859.41;519786;28;995;-51
2023/10/08 01:00:59;;;;;;;1.70;1.40;;;;;;;7.45;55.71;93880.88;520610;28;933;-53
2023/10/08 01:01:16;;;;;;;2.05;1.83;;;;;;;7.51;55.73;93892.53;519798;28;884;-52
2023/10/08 01:01:32;;;;;;;2.42;2.00;;;;;;;7.51;55.67;93884.28;519629;28;869;-52
2023/10/08 01:01:51;;;;;;;2.85;2.10;;;;;;;7.52;55.79;93883.03;517442;28;1244;-52
2023/10/08 01:02:08;;;;;;;3.97;2.05;;;;;;;7.54;55.62;93891.50;517527;28;1085;-51
2023/10/08 01:02:42;;;;;;;2.38;1.90;;;;;;;7.54;55.74;93888.75;517523;28;892;-52
2023/10/08 01:03:02;;;;;;;3.00;1.88;;;;;;;7.51;55.57;93887.03;517529;28;983;-51
2023/10/08 01:03:19;;;;;;;3.38;1.77;;;;;;;7.38;55.73;93880.72;517973;28;1715;-51
2023/10/08 01:03:35;;;;;;;2.95;1.77;;;;;;;7.44;55.67;93895.88;519558;28;1034;-53
2023/10/08 01:03:51;;;;;;;2.35;1.88;;;;;;;7.44;55.93;93892.38;519864;28;896;-51
2023/10/08 01:04:11;;;;;;;3.57;2.20;;;;;;;7.44;55.93;93884.13;519836;28;873;-50
2023/10/08 01:04:27;;;;;;;3.33;2.25;;;;;;;7.46;55.71;93896.09;519758;28;951;-52
2023/10/08 01:04:44;;;;;;;3.00;2.10;;;;;;;7.47;55.53;93888.63;520468;28;1033;-52
2023/10/08 01:05:00;;;;;;;2.10;1.70;;;;;;;7.39;55.57;93871.97;521809;28;895;-52
2023/10/08 01:05:20;;;;;;;3.85;1.70;;;;;;;7.49;55.45;93892.31;521683;28;1282;-52
2023/10/08 01:05:47;;;;;;;4.82;2.13;;;;;;;7.50;55.64;93891.06;519770;28;988;-52
2023/10/08 01:06:04;;;;;;;2.65;1.77;;;;;;;7.49;55.56;93903.28;519588;28;1076;-52
2023/10/08 01:06:19;;;;;;;3.22;1.92;;;;;;;7.49;55.67;93895.06;519628;28;1718;-51
2023/10/08 01:06:35;;;;;;;3.53;2.08;;;;;;;7.48;55.80;93890.84;520056;28;1153;-50
2023/10/08 01:06:59;;;;;;;3.00;1.97;;;;;;;7.47;55.96;93892.09;521749;28;785;-51
2023/10/08 01:07:18;;;;;;;2.15;1.75;;;;;;;7.52;55.66;93894.03;521525;28;989;-52
2023/10/08 01:07:35;;;;;;;2.35;1.65;;;;;;;7.51;55.79;93889.78;519616;28;845;-51
2023/10/08 01:07:52;;;;;;;2.72;1.77;;;;;;;7.52;55.63;93894.03;519462;28;1682;-51
2023/10/08 01:08:12;;;;;;;3.00;1.90;;;;;;;7.53;55.90;93894.78;519483;28;1922;-52
2023/10/08 01:08:36;;;;;;;2.40;2.08;;;;;;;7.53;55.68;93892.78;520595;28;913;-51
2023/10/08 01:08:53;;;;;;;3.00;1.92;;;;;;;7.55;55.74;93890.25;518945;28;975;-51
2023/10/08 01:09:18;;;;;;;3.58;2.00;;;;;;;7.56;55.57;93888.97;517590;28;975;-51
2023/10/08 01:09:35;;;;;;;2.30;1.75;;;;;;;7.59;55.37;93887.19;519788;28;1747;-51
2023/10/08 01:09:51;;;;;;;1.70;1.45;;;;;;;7.60;55.47;93891.44;521720;28;857;-53
2023/10/08 01:10:10;;;;;;;2.30;1.70;;;;;;;7.60;55.40;93889.44;519601;28;849;-51
2023/10/08 01:10:25;;;;;;;2.00;1.80;;;;;;;7.61;55.47;93890.19;519657;28;1762;-52
2023/10/08 01:10:46;;;;;;;2.30;1.90;;;;;;;7.60;55.33;93883.94;520496;28;849;-51
2023/10/08 01:12:27;;;;;;;2.17;1.65;;;;;;;7.54;55.71;93888.75;517429;28;915;-50
2023/10/08 01:13:01;;;;;;;3.03;1.77;;;;;;;7.48;55.47;93887.34;515650;28;1063;-51
2023/10/08 01:13:20;;;;;;;3.85;1.80;;;;;;;7.54;55.68;93888.00;516537;28;1696;-50
2023/10/08 01:13:42;;;;;;;4.85;1.63;;;;;;;7.53;55.78;93887.28;519853;28;829;-53
2023/10/08 01:13:59;;;;;;;2.08;1.63;;;;;;;7.54;55.73;93891.50;521801;28;928;-52
2023/10/08 01:14:15;;;;;;;4.45;2.05;;;;;;;7.52;55.60;93885.78;521594;28;1461;-53
2023/10/08 01:14:32;;;;;;;7.15;2.38;;;;;;;7.57;55.71;93886.97;521780;28;1060;-51
2023/10/08 01:14:49;;;;;;;6.45;2.53;;;;;;;7.57;55.43;93884.97;521834;28;992;-50
2023/10/08 01:15:16;;;;;;;4.50;2.95;;;;;;;7.57;55.27;93886.97;521819;28;864;-51
2023/10/08 01:15:35;;;;;;;6.35;2.78;;;;;;;7.57;55.23;93876.75;521804;28;1085;-51
2023/10/08 01:15:51;;;;;;;6.20;2.80;;;;;;;7.59;55.15;93887.19;520582;28;1776;-51
2023/10/08 01:16:09;;;;;;;6.55;3.03;;;;;;;7.59;55.09;93887.19;519756;28;917;-51
2023/10/08 01:16:28;;;;;;;7.00;3.38;;;;;;;7.58;54.93;93877.47;519748;28;915;-50
2023/10/08 01:16:46;;;;;;;4.55;2.95;;;;;;;7.55;54.93;93884.75;519715;28;915;-51
2023/10/08 01:17:02;;;;;;;3.53;2.50;;;;;;;7.53;55.12;93881.78;521737;28;1021;-51
2023/10/08 01:17:19;;;;;;;3.28;2.50;;;;;;;7.50;55.05;93888.31;521760;28;856;-51
2023/10/08 01:17:45;;;;;;;3.22;2.58;;;;;;;7.50;55.13;93880.06;521712;28;865;-51
2023/10/08 01:18:03;;;;;;;2.67;2.22;;;;;;;7.44;55.37;93893.13;521852;28;1218;-52
2023/10/08 01:18:35;;;;;;;3.58;2.50;;;;;;;7.42;55.48;93879.19;521762;28;1120;-51
2023/10/08 01:18:53;;;;;;;4.35;2.45;;;;;;;7.44;55.57;93882.16;519815;28;836;-53
2023/10/08 01:19:13;;;;;;;3.97;2.42;;;;;;;7.45;55.42;93885.63;521585;28;897;-51
2023/10/08 01:19:28;;;;;;;4.15;2.92;;;;;;;7.46;55.64;93885.13;520609;28;1222;-52
2023/10/08 01:19:50;;;;;;;6.57;2.93;;;;;;;7.44;55.62;93876.66;519732;28;967;-51
2023/10/08 01:20:21;;;;;;;6.47;2.88;;;;;;;7.41;55.53;93880.41;519709;28;944;-52
2023/10/08 01:20:37;;;;;;;3.80;2.55;;;;;;;7.41;55.88;93887.91;520127;28;1100;-50
2023/10/08 01:20:52;;;;;;;3.47;2.90;;;;;;;7.42;55.81;93881.16;521294;28;871;-50
2023/10/08 01:21:11;;;;;;;5.07;2.92;;;;;;;7.42;55.73;93879.19;519783;27;1429;-51
2023/10/08 01:21:34;;;;;;;5.95;3.20;;;;;;;7.45;55.74;93885.63;520335;28;916;-51
2023/10/08 01:21:49;;;;;;;5.38;3.15;;;;;;;7.46;55.72;93882.38;519593;28;948;-51
2023/10/08 01:22:13;;;;;;;5.40;3.22;;;;;;;7.48;55.65;93884.59;519575;28;1748;-50
2023/10/08 01:22:29;;;;;;;3.63;2.90;;;;;;;7.50;55.63;93891.06;520210;28;1053;-50
2023/10/08 01:22:44;;;;;;;4.65;3.33;;;;;;;7.49;55.48;93883.34;521726;28;948;-51
2023/10/08 01:23:16;;;;;;;4.50;3.43;;;;;;;7.40;55.31;93878.94;521875;28;860;-51
2023/10/08 01:23:31;;;;;;;4.15;3.30;;;;;;;7.46;55.41;93879.63;521790;28;943;-51
2023/10/08 01:23:47;;;;;;;5.10;3.30;;;;;;;7.22;55.33;93849.44;521742;28;826;-51
2023/10/08 01:24:06;;;;;;;6.10;3.22;;;;;;;7.50;55.70;93884.81;521670;28;1163;-50
2023/10/08 01:24:24;;;;;;;5.78;3.58;;;;;;;7.49;55.52;93881.31;521751;28;942;-51
2023/10/08 01:24:40;;;;;;;5.10;3.75;;;;;;;7.50;55.55;93880.06;521815;28;898;-50
2023/10/08 01:24:56;;;;;;;5.10;4.00;;;;;;;7.51;55.45;93887.03;521756;28;904;-50
2023/10/08 01:25:20;;;;;;;5.05;4.13;;;;;;;7.50;55.42;93888.31;521763;28;763;-51
2023/10/08 01:25:42;;;;;;;5.07;4.32;;;;;;;7.46;55.39;93898.84;521138;28;1435;-50
2023/10/08 01:26:10;;;;;;;6.75;4.38;;;;;;;7.45;55.50;93888.38;519766;28;892;-50
2023/10/08 01:26:25;;;;;;;9.95;4.75;;;;;;;7.47;55.37;93881.09;519696;28;896;-51
2023/10/08 01:26:41;;;;;;;7.82;4.60;;;;;;;7.48;55.49;93884.59;520841;28;806;-50
2023/10/08 01:26:56;;;;;;;5.10;3.88;;;;;;;7.46;55.49;93876.88;521715;28;1128;-49
2023/10/08 01:27:12;;;;;;;5.77;3.87;;;;;;;7.50;55.30;93888.31;521712;28;873;-51
2023/10/08 01:27:34;;;;;;;6.47;4.30;;;;;;;7.51;55.29;93881.53;521650;28;1126;-50
2023/10/08 01:27:50;;;;;;;5.47;3.83;;;;;;;7.52;55.25;93887.78;521822;28;911;-49
2023/10/08 01:28:14;;;;;;;4.72;3.50;;;;;;;7.51;55.06;93881.53;521744;28;1918;-50
2023/10/08 01:28:30;;;;;;;6.50;4.15;;;;;;;7.51;54.95;93889.78;520844;28;1343;-50
2023/10/08 01:28:46;;;;;;;6.68;4.50;;;;;;;7.27;54.95;93854.13;520737;28;865;-51
2023/10/08 01:29:07;;;;;;;7.13;4.40;;;;;;;7.49;54.97;93881.31;520437;28;991;-51
2023/10/08 01:29:24;;;;;;;9.20;4.30;;;;;;;7.49;54.99;93883.34;521772;28;961;-50
2023/10/08 01:29:43;;;;;;;9.82;4.75;;;;;;;7.48;54.99;93879.84;521799;28;877;-52
2023/10/08 01:30:09;;;;;;;10.30;5.43;;;;;;;7.49;54.88;93880.59;521652;28;1073;-51
2023/10/08 01:30:25;;;;;;;6.55;4.35;;;;;;;7.50;55.07;93885.56;521726;28;930;-51
2023/10/08 01:30:42;;;;;;;5.63;4.28;;;;;;;7.50;55.04;93882.81;520533;28;904;-50
2023/10/08 01:31:00;;;;;;;5.90;4.22;;;;;;;7.49;54.87;93889.56;519800;28;848;-51
2023/10/08 01:31:15;;;;;;;6.70;4.38;;;;;;;7.44;54.87;93873.91;519637;28;1713;-49
2023/10/08 01:31:31;;;;;;;5.40;4.30;;;;;;;7.42;54.92;93889.41;520438;28;1065;-49
2023/10/08 01:31:57;;;;;;;5.50;4.75;;;;;;;7.40;54.90;93887.19;521722;28;1003;-50
2023/10/08 01:32:16;;;;;;;8.45;4.47;;;;;;;7.38;55.17;93889.72;521239;28;840;-50
2023/10/08 01:32:34;;;;;;;6.72;4.07;;;;;;;7.38;55.21;93881.47;520847;28;1069;-50
2023/10/08 01:32:49;;;;;;;6.53;3.85;;;;;;;7.37;55.10;93879.22;521761;28;1712;-51
2023/10/08 01:33:04;;;;;;;4.68;3.33;;;;;;;7.41;55.12;93887.91;521619;28;1076;-51
2023/10/08 01:33:27;;;;;;;4.13;3.17;;;;;;;7.37;55.10;93879.22;521800;28;852;-50
2023/10/08 01:33:50;;;;;;;4.90;3.15;;;;;;;7.42;55.06;93881.91;521732;28;885;-49
2023/10/08 01:34:07;;;;;;;5.88;3.00;;;;;;;7.16;54.94;93846.03;520141;28;1164;-49
2023/10/08 01:34:30;;;;;;;4.88;3.20;;;;;;;7.41;55.01;93883.16;521748;28;951;-50
2023/10/08 01:34:46;;;;;;;4.10;3.35;;;;;;;7.41;55.18;93879.66;521746;28;861;-50
2023/10/08 01:35:03;;;;;;;5.05;3.65;;;;;;;7.41;55.19;93879.66;521806;28;821;-50
2023/10/08 01:35:22;;;;;;;5.07;3.85;;;;;;;7.41;55.11;93883.16;521776;28;803;-50
2023/10/08 01:35:39;;;;;;;5.47;3.67;;;;;;;7.30;55.14;93863.31;521651;28;992;-51
2023/10/08 01:35:55;;;;;;;5.57;3.50;;;;;;;7.41;55.17;93876.94;521795;28;821;-49
2023/10/08 01:36:12;;;;;;;4.68;3.22;;;;;;;7.40;55.06;93889.94;519799;28;830;-50
2023/10/08 01:36:28;;;;;;;3.20;2.70;;;;;;;7.40;54.89;93886.44;519736;28;1087;-50
2023/10/08 01:36:46;;;;;;;3.65;2.88;;;;;;;7.40;55.01;93887.19;519714;28;873;-49
2023/10/08 01:37:08;;;;;;;4.97;3.30;;;;;;;7.33;55.09;93870.53;519750;28;955;-49
2023/10/08 01:37:23;;;;;;;7.35;3.70;;;;;;;7.41;55.10;93876.94;519628;28;964;-51
2023/10/08 01:37:40;;;;;;;6.13;3.50;;;;;;;7.42;55.10;93881.91;521610;28;1053;-51